createdAt,value
2022-11-28T00:02:06.763Z,102836.41
2022-11-28T00:07:12.114Z,102793.41
2022-11-28T00:12:15.373Z,102833.44
2022-11-28T00:17:18.314Z,102825.44
2022-11-28T00:22:21.281Z,102804.91
2022-11-28T00:27:24.474Z,102827.31
2022-11-28T00:32:28.448Z,102848.31
2022-11-28T00:37:31.442Z,102833.00
2022-11-28T00:42:34.348Z,102827.00
2022-11-28T00:47:37.490Z,102860.25
2022-11-28T00:52:41.126Z,102842.88
2022-11-28T00:57:44.240Z,102861.06
2022-11-28T01:02:47.181Z,102864.34
2022-11-28T01:07:50.411Z,102857.59
2022-11-28T01:12:53.467Z,102877.53
2022-11-28T01:17:56.389Z,102865.22
2022-11-28T01:22:59.424Z,102879.03
2022-11-28T01:28:02.574Z,102889.44
2022-11-28T01:33:05.817Z,102875.09
2022-11-28T01:38:08.704Z,102841.28
2022-11-28T01:43:11.717Z,102884.34
2022-11-28T01:48:19.125Z,102798.56
2022-11-28T01:53:22.636Z,102889.41
2022-11-28T01:58:26.698Z,102873.81
2022-11-28T02:03:46.074Z,102889.69
2022-11-28T02:08:56.490Z,102894.69
2022-11-28T02:14:08.349Z,102873.28
2022-11-28T02:19:57.235Z,102879.50
2022-11-28T02:25:32.493Z,102871.91
2022-11-28T02:30:35.555Z,102907.28
2022-11-28T02:36:04.122Z,102916.28
2022-11-28T02:41:28.073Z,102898.06
2022-11-28T02:46:55.709Z,102889.75
2022-11-28T02:52:13.508Z,102913.22
2022-11-28T02:57:16.606Z,102905.56
2022-11-28T03:02:23.233Z,102932.13
2022-11-28T03:07:26.317Z,102940.94
2022-11-28T03:12:46.257Z,102905.41
2022-11-28T03:18:03.302Z,102933.81
2022-11-28T03:23:08.867Z,102947.63
2022-11-28T03:28:43.987Z,102962.44
2022-11-28T03:33:55.022Z,102949.44
2022-11-28T03:39:11.679Z,102953.97
2022-11-28T03:44:20.675Z,102920.38
2022-11-28T03:49:51.604Z,102966.03
2022-11-28T03:55:01.139Z,102967.94
2022-11-28T04:00:12.179Z,102949.16
2022-11-28T04:05:14.962Z,102987.31
2022-11-28T04:10:28.032Z,102980.59
2022-11-28T04:15:57.135Z,102974.50
2022-11-28T04:21:10.960Z,102941.88
2022-11-28T04:26:29.120Z,102930.63
2022-11-28T04:31:33.369Z,102982.38
2022-11-28T04:36:39.359Z,102971.16
2022-11-28T04:42:09.577Z,102970.16
2022-11-28T04:47:12.951Z,102981.44
2022-11-28T04:52:35.558Z,102995.16
2022-11-28T04:57:43.252Z,102999.34
2022-11-28T05:02:48.267Z,103011.50
2022-11-28T05:07:52.740Z,103010.50
2022-11-28T05:12:55.718Z,102979.28
2022-11-28T05:17:58.777Z,103034.19
2022-11-28T05:23:01.888Z,103031.34
2022-11-28T05:28:04.995Z,103037.28
2022-11-28T05:33:07.878Z,103010.50
2022-11-28T05:38:13.563Z,103045.66
2022-11-28T05:43:16.835Z,103050.03
2022-11-28T05:48:20.090Z,103062.88
2022-11-28T05:53:23.074Z,103048.44
2022-11-28T05:58:26.167Z,103067.19
2022-11-28T06:03:29.126Z,103074.16
2022-11-28T06:08:32.029Z,103068.09
2022-11-28T06:13:35.516Z,103048.34
2022-11-28T06:18:39.450Z,103083.25
2022-11-28T06:23:42.628Z,103070.47
2022-11-28T06:28:45.963Z,103084.75
2022-11-28T06:33:49.317Z,103075.50
2022-11-28T06:38:53.013Z,103054.47
2022-11-28T06:43:57.190Z,103009.22
2022-11-28T06:49:00.843Z,103084.00
2022-11-28T06:54:03.761Z,103091.94
2022-11-28T06:59:06.797Z,103087.47
2022-11-28T07:04:10.613Z,103078.94
2022-11-28T07:09:13.758Z,103088.81
2022-11-28T07:14:16.866Z,103090.19
2022-11-28T07:19:23.707Z,103051.69
2022-11-28T07:24:27.048Z,103083.13
2022-11-28T07:29:36.251Z,103076.47
2022-11-28T07:34:39.496Z,103079.66
2022-11-28T07:39:44.816Z,103080.69
2022-11-28T07:44:48.696Z,103084.94
2022-11-28T07:49:51.815Z,103079.97
2022-11-28T07:54:54.722Z,103093.97
2022-11-28T07:59:57.732Z,103089.84
2022-11-28T08:05:00.644Z,103085.63
2022-11-28T08:10:04.504Z,103083.06
2022-11-28T08:15:07.818Z,103051.63
2022-11-28T08:20:11.163Z,103077.56
2022-11-28T08:25:14.393Z,103076.19
2022-11-28T08:30:17.361Z,103081.72
2022-11-28T08:35:20.302Z,103090.00
2022-11-28T08:40:23.389Z,103052.94
2022-11-28T08:45:26.437Z,103077.84
2022-11-28T08:50:29.480Z,103042.25
2022-11-28T08:55:39.128Z,103070.56
2022-11-28T09:00:44.852Z,103074.78
2022-11-28T09:05:48.741Z,103073.88
2022-11-28T09:10:51.713Z,103062.25
2022-11-28T09:15:55.738Z,103044.97
2022-11-28T09:21:03.727Z,103060.59
2022-11-28T09:26:20.356Z,103033.69
2022-11-28T09:31:23.764Z,103033.16
2022-11-28T09:36:28.805Z,103058.91
2022-11-28T09:41:45.887Z,103041.53
2022-11-28T09:46:52.787Z,103055.28
2022-11-28T09:52:25.501Z,103051.19
2022-11-28T09:57:40.281Z,103057.69
2022-11-28T10:02:56.279Z,103054.69
2022-11-28T10:08:46.544Z,103033.13
2022-11-28T10:14:26.091Z,103073.72
2022-11-28T10:19:53.936Z,103025.38
2022-11-28T10:25:04.573Z,103033.50
2022-11-28T10:30:16.838Z,103047.44
2022-11-28T10:35:32.914Z,103039.66
2022-11-28T10:40:53.319Z,103060.31
2022-11-28T10:46:05.068Z,103035.16
2022-11-28T10:51:26.958Z,103065.00
2022-11-28T10:56:38.526Z,103049.31
2022-11-28T11:01:45.930Z,103067.94
2022-11-28T11:07:22.663Z,103075.22
2022-11-28T11:12:32.821Z,103072.91
2022-11-28T11:17:38.387Z,103073.50
2022-11-28T11:22:55.047Z,103088.28
2022-11-28T11:28:03.890Z,103069.81
2022-11-28T11:33:16.886Z,103094.34
2022-11-28T11:38:22.724Z,103083.69
2022-11-28T11:43:36.043Z,103063.38
2022-11-28T11:48:51.463Z,103096.09
2022-11-28T11:54:13.859Z,103089.16
2022-11-28T11:59:37.422Z,103101.66
2022-11-28T12:04:49.951Z,103109.78
2022-11-28T12:10:03.039Z,103121.75
2022-11-28T12:15:22.119Z,103124.31
2022-11-28T12:20:36.983Z,103124.78
2022-11-28T12:25:59.891Z,103121.81
2022-11-28T12:31:41.764Z,103134.84
2022-11-28T12:36:54.626Z,103100.28
2022-11-28T12:42:10.509Z,103153.97
2022-11-28T12:47:16.426Z,103160.50
2022-11-28T12:52:22.302Z,103131.72
2022-11-28T12:57:49.190Z,103180.69
2022-11-28T13:03:10.495Z,103181.38
2022-11-28T13:08:19.538Z,103174.94
2022-11-28T13:13:35.351Z,103183.66
2022-11-28T13:18:38.509Z,103199.84
2022-11-28T13:23:48.655Z,103175.09
2022-11-28T13:29:10.284Z,103201.25
2022-11-28T13:34:18.626Z,103173.00
2022-11-28T13:39:42.791Z,103198.22
2022-11-28T13:45:01.345Z,103200.97
2022-11-28T13:50:25.913Z,103209.75
2022-11-28T13:55:45.061Z,103221.97
2022-11-28T14:01:10.017Z,103229.97
2022-11-28T14:06:16.477Z,103223.13
2022-11-28T14:11:56.534Z,103230.09
2022-11-28T14:17:09.776Z,103211.22
2022-11-28T14:22:35.189Z,103249.38
2022-11-28T14:27:41.164Z,103252.09
2022-11-28T14:32:44.763Z,103260.78
2022-11-28T14:37:54.228Z,103245.31
2022-11-28T14:43:25.972Z,103253.97
2022-11-28T14:48:30.983Z,103255.00
2022-11-28T14:53:37.633Z,103258.44
2022-11-28T14:58:47.962Z,103245.53
2022-11-28T15:03:54.187Z,103248.09
2022-11-28T15:09:15.571Z,103255.13
2022-11-28T15:14:23.950Z,103227.44
2022-11-28T15:19:49.645Z,103261.19
2022-11-28T15:24:53.396Z,103261.22
2022-11-28T15:30:01.799Z,103285.41
2022-11-28T15:35:12.509Z,103269.91
2022-11-28T15:40:22.274Z,103285.50
2022-11-28T15:45:35.798Z,103285.59
2022-11-28T15:50:50.795Z,103284.75
2022-11-28T15:56:15.091Z,103289.16
2022-11-28T16:01:23.345Z,103299.56
2022-11-28T16:06:31.626Z,103302.22
2022-11-28T16:11:36.230Z,103303.13
2022-11-28T16:16:40.133Z,103306.56
2022-11-28T16:21:53.795Z,103304.00
2022-11-28T16:27:02.259Z,103310.09
2022-11-28T16:32:32.147Z,103314.38
2022-11-28T16:37:35.383Z,103315.25
2022-11-28T16:42:38.579Z,103320.47
2022-11-28T16:47:41.657Z,103325.66
2022-11-28T16:52:48.883Z,103327.41
2022-11-28T16:58:09.199Z,103334.34
2022-11-28T17:03:41.678Z,103342.13
2022-11-28T17:08:44.984Z,103331.75
2022-11-28T17:13:47.979Z,103316.19
2022-11-28T17:18:51.231Z,103336.97
2022-11-28T17:23:54.209Z,103324.88
2022-11-28T17:28:59.159Z,103278.16
2022-11-28T17:34:02.378Z,103354.28
2022-11-28T17:39:05.536Z,103336.97
2022-11-28T17:44:24.553Z,103355.16
2022-11-28T17:49:28.503Z,103322.25
2022-11-28T17:54:31.430Z,103362.03
2022-11-28T17:59:36.315Z,103340.41
2022-11-28T18:04:39.329Z,103363.78
2022-11-28T18:09:43.291Z,103348.16
2022-11-28T18:14:47.708Z,103375.84
2022-11-28T18:19:55.941Z,103346.41
2022-11-28T18:25:00.355Z,103375.00
2022-11-28T18:30:05.153Z,103370.66
2022-11-28T18:35:09.512Z,103370.59
2022-11-28T18:40:13.883Z,103374.06
2022-11-28T18:45:16.895Z,103388.78
2022-11-28T18:50:19.884Z,103360.16
2022-11-28T18:55:23.839Z,103393.94
2022-11-28T19:00:27.224Z,103391.31
2022-11-28T19:05:33.861Z,103386.09
2022-11-28T19:10:40.192Z,103327.25
2022-11-28T19:15:43.145Z,103400.81
2022-11-28T19:20:47.016Z,103404.19
2022-11-28T19:25:50.277Z,103399.03
2022-11-28T19:30:53.908Z,103418.94
2022-11-28T19:36:05.374Z,103408.53
2022-11-28T19:41:15.577Z,103413.63
2022-11-28T19:46:20.044Z,103400.59
2022-11-28T19:51:23.142Z,103406.66
2022-11-28T19:56:26.590Z,103397.09
2022-11-28T20:01:30.152Z,103403.94
2022-11-28T20:06:34.219Z,103406.53
2022-11-28T20:11:40.160Z,103364.91
2022-11-28T20:16:46.020Z,103415.03
2022-11-28T20:21:50.609Z,103374.31
2022-11-28T20:26:53.562Z,103421.94
2022-11-28T20:31:57.518Z,103384.69
2022-11-28T20:37:02.372Z,103424.47
2022-11-28T20:42:06.314Z,103427.81
2022-11-28T20:47:11.260Z,103396.63
2022-11-28T20:52:14.137Z,103421.72
2022-11-28T20:57:21.710Z,103418.22
2022-11-28T21:02:25.213Z,103423.31
2022-11-28T21:07:28.306Z,103419.03
2022-11-28T21:12:31.330Z,103431.97
2022-11-28T21:17:34.216Z,103426.66
2022-11-28T21:22:37.676Z,103396.38
2022-11-28T21:27:40.649Z,103431.72
2022-11-28T21:32:43.679Z,103433.31
2022-11-28T21:37:46.602Z,103390.13
2022-11-28T21:42:49.460Z,103438.53
2022-11-28T21:47:52.788Z,103437.56
2022-11-28T21:52:55.722Z,103436.72
2022-11-28T21:57:58.641Z,103401.13
2022-11-28T22:03:05.848Z,103439.19
2022-11-28T22:08:11.115Z,103423.50
2022-11-28T22:13:15.037Z,103434.66
2022-11-28T22:18:18.642Z,103431.88
2022-11-28T22:23:21.559Z,103429.31
2022-11-28T22:28:24.454Z,103429.47
2022-11-28T22:33:27.428Z,103428.44
2022-11-28T22:38:30.526Z,103438.72
2022-11-28T22:43:33.564Z,103448.19
2022-11-28T22:48:37.640Z,103443.72
2022-11-28T22:53:40.863Z,103459.19
2022-11-28T22:58:46.294Z,103423.50
2022-11-28T23:03:49.439Z,103471.16
2022-11-28T23:08:52.961Z,103432.03
2022-11-28T23:13:57.083Z,103476.22
2022-11-28T23:19:02.994Z,103467.50
2022-11-28T23:24:07.581Z,103475.34
2022-11-28T23:29:11.897Z,103473.38
2022-11-28T23:34:15.793Z,103464.66
2022-11-28T23:39:21.898Z,103470.69
2022-11-28T23:44:24.936Z,103437.66
2022-11-28T23:49:27.835Z,103468.44
2022-11-28T23:54:30.739Z,103451.16
2022-11-28T23:59:33.778Z,103464.16
